Time;durP1;ratioP1;P1;durP2;ratioP2;P2;SDS_P1;SDS_P2;PMS_P1;PMS_P2;Temp;Humidity;BMP_temperature;BMP_pressure;BME280_temperature;BME280_humidity;BME280_pressure;Samples;Min_cycle;Max_cycle;Signal;HPM_P1;HPM_P2
2023/02/08 00:00:51;;;;;;;50.80;27.00;;;;;;;0.88;63.07;101478.31;235550;1192;138099;-66
2023/02/08 00:06:59;;;;;;;53.70;28.00;;;;;;;0.87;63.14;101490.35;235733;1193;138328;-63
2023/02/08 00:12:46;;;;;;;46.20;25.50;;;;;;;0.92;63.39;101496.19;235556;1192;138306;-65
2023/02/08 00:18:26;;;;;;;44.80;25.80;;;;;;;0.95;63.34;101502.88;235595;1193;138157;-65
2023/02/08 00:23:55;;;;;;;;;;;;;;;;;;;;;
2023/02/08 00:29:52;;;;;;;42.40;24.10;;;;;;;0.97;63.26;101505.18;235597;1193;137921;-67
2023/02/08 00:35:47;;;;;;;40.60;22.50;;;;;;;1.03;63.23;101500.73;235579;1193;138206;-67
2023/02/08 00:41:08;;;;;;;42.00;23.80;;;;;;;1.07;63.15;101502.73;235470;1193;138545;-66
2023/02/08 00:46:25;;;;;;;43.80;24.50;;;;;;;1.03;63.26;101498.30;235526;1192;138817;-64
2023/02/08 00:51:44;;;;;;;;;;;;;;;;;;;;;
2023/02/08 00:56:54;;;;;;;40.40;23.00;;;;;;;1.05;63.33;101498.48;235469;1193;138314;-65
2023/02/08 01:02:06;;;;;;;42.60;23.50;;;;;;;1.04;63.30;101501.98;235610;1192;138475;-67
2023/02/08 01:07:46;;;;;;;;;;;;;;;;;;;;;
2023/02/08 01:13:36;;;;;;;43.20;23.40;;;;;;;1.05;63.51;101500.59;235612;1192;138548;-68
2023/02/08 01:19:12;;;;;;;40.60;23.50;;;;;;;1.05;63.47;101510.73;235738;1192;138556;-66
2023/02/08 01:25:01;;;;;;;;;;;;;;;;;;;;;
2023/02/08 01:30:33;;;;;;;41.00;24.40;;;;;;;1.04;63.50;101511.26;235496;1192;139425;-66
2023/02/08 01:36:05;;;;;;;39.10;23.00;;;;;;;1.06;63.59;101509.02;235644;1193;138312;-66
2023/02/08 01:41:30;;;;;;;38.00;23.10;;;;;;;1.06;63.79;101508.32;235677;1192;138250;-66
2023/02/08 01:47:34;;;;;;;41.70;23.80;;;;;;;1.12;63.79;101508.22;235593;1192;138884;-67
2023/02/08 01:53:18;;;;;;;43.60;24.30;;;;;;;1.22;63.57;101507.52;235557;1192;139345;-66
2023/02/08 01:58:57;;;;;;;40.30;23.30;;;;;;;1.28;63.46;101514.61;235655;1193;138710;-66
2023/02/08 02:04:35;;;;;;;38.80;24.10;;;;;;;1.31;63.41;101517.27;235546;1192;138708;-66
2023/02/08 02:10:19;;;;;;;40.20;23.90;;;;;;;1.33;63.38;101520.98;235719;1193;138565;-67
2023/02/08 02:15:33;;;;;;;40.60;23.00;;;;;;;1.33;63.59;101517.66;235852;1192;138886;-66
2023/02/08 02:21:40;;;;;;;;;;;;;;;;;;;;;
2023/02/08 02:27:49;;;;;;;44.80;23.70;;;;;;;1.29;63.85;101524.06;235599;1192;138530;-68
2023/02/08 02:33:32;;;;;;;42.40;23.80;;;;;;;1.27;63.91;101522.98;235860;1192;138681;-65
2023/02/08 02:39:35;;;;;;;;;;;;;;;;;;;;;
2023/02/08 02:45:40;;;;;;;42.80;24.40;;;;;;;1.23;64.20;101522.20;235689;1193;138099;-68
2023/02/08 02:51:41;;;;;;;39.60;24.50;;;;;;;1.17;64.50;101522.83;235751;1192;138697;-67
2023/02/08 02:57:26;;;;;;;;;;;;;;;;;;;;;
2023/02/08 03:04:05;;;;;;;;;;;;;;;;;;;;;
2023/02/08 03:10:15;;;;;;;41.10;24.20;;;;;;;1.15;65.54;101539.58;235803;1195;138592;-67
2023/02/08 03:31:53;;;;;;;;;;;;;;;;;;;;;
2023/02/08 03:39:29;;;;;;;;;;;;;;;;;;;;;
2023/02/08 03:45:16;;;;;;;;;;;;;;;;;;;;;
2023/02/08 03:52:06;;;;;;;43.90;26.80;;;;;;;1.36;66.52;101572.63;234824;1193;138886;-65
2023/02/08 03:58:16;;;;;;;45.10;27.30;;;;;;;1.44;66.29;101567.33;235433;1193;138293;-65
2023/02/08 04:04:11;;;;;;;44.20;27.00;;;;;;;1.43;66.40;101575.36;235554;1193;138129;-66
2023/02/08 04:10:50;;;;;;;48.00;28.30;;;;;;;1.41;66.44;101573.40;235657;1193;138209;-67
2023/02/08 04:17:11;;;;;;;41.20;26.20;;;;;;;1.42;66.54;101563.98;235638;1193;138297;-67
2023/02/08 04:23:29;;;;;;;46.00;26.70;;;;;;;1.38;66.75;101551.67;234876;1193;138508;-66
2023/02/08 04:29:47;;;;;;;;;;;;;;;;;;;;;
2023/02/08 04:42:51;;;;;;;41.50;25.30;;;;;;;1.30;66.86;101534.23;235156;1193;139211;-64
2023/02/08 04:56:13;;;;;;;;;;;;;;;;;;;;;
2023/02/08 06:26:15;;;;;;;76.20;41.70;;;;;;;1.08;66.88;101657.09;231114;1210;635103;-67
2023/02/08 06:32:58;;;;;;;77.10;40.70;;;;;;;0.99;66.65;101659.90;234710;1193;138208;-67
2023/02/08 06:39:00;;;;;;;76.80;39.00;;;;;;;0.89;66.91;101664.95;235353;1193;138385;-68
2023/02/08 06:45:10;;;;;;;238.50;129.10;;;;;;;0.87;67.47;101676.45;235246;1193;139366;-68
2023/02/08 06:51:56;;;;;;;81.10;44.50;;;;;;;0.96;67.73;101679.41;235393;1193;139033;-68
2023/02/08 07:34:54;;;;;;;;;;;;;;;;;;;;;
2023/02/08 08:09:57;;;;;;;47.60;28.00;;;;;;;1.75;64.99;101711.48;234841;1196;138445;-64
2023/02/08 08:16:23;;;;;;;177.10;90.70;;;;;;;1.76;65.08;101721.65;234911;1195;138697;-65
2023/02/08 08:22:32;;;;;;;50.90;28.20;;;;;;;1.91;65.11;101728.55;234868;1196;140378;-66
2023/02/08 08:28:45;;;;;;;;;;;;;;;;;;;;;
2023/02/08 08:35:12;;;;;;;47.30;26.70;;;;;;;1.91;64.98;101734.15;235026;1196;139472;-66
2023/02/08 08:49:26;;;;;;;1060.60;609.80;;;;;;;2.10;64.67;101739.20;234884;1203;138597;-64
2023/02/08 09:11:11;;;;;;;;;;;;;;;;;;;;;
2023/02/08 09:55:22;;;;;;;27.40;16.30;;;;;;;2.78;61.60;101761.92;235670;1197;106817;-64
2023/02/08 10:01:43;;;;;;;27.60;16.60;;;;;;;2.86;60.89;101767.99;234870;1200;139294;-65
2023/02/08 10:29:22;;;;;;;32.20;20.10;;;;;;;3.17;60.95;101743.48;234452;1199;138487;-65
2023/02/08 10:59:04;;;;;;;32.20;19.20;;;;;;;3.13;60.45;101732.22;235016;1200;138179;-66
2023/02/08 11:21:19;;;;;;;28.80;16.70;;;;;;;3.22;60.01;101731.62;233001;1199;139501;-68
2023/02/08 11:27:01;;;;;;;;;;;;;;;;;;;;;
2023/02/08 11:33:28;;;;;;;29.70;17.40;;;;;;;3.52;59.29;101730.89;234708;1200;138722;-66
2023/02/08 11:39:17;;;;;;;;;;;;;;;;;;;;;
2023/02/08 11:45:26;;;;;;;30.40;17.60;;;;;;;3.34;58.73;101728.25;234260;1196;139421;-68
2023/02/08 11:51:01;;;;;;;27.10;16.40;;;;;;;3.36;58.62;101718.95;233490;1196;139337;-67
2023/02/08 11:56:52;;;;;;;;;;;;;;;;;;;;;
2023/02/08 12:03:03;;;;;;;29.30;16.80;;;;;;;3.59;58.01;101714.98;234883;1196;139113;-68
2023/02/08 12:09:36;;;;;;;25.40;15.60;;;;;;;3.76;57.95;101706.90;234823;1195;139393;-69
2023/02/08 12:15:38;;;;;;;32.00;17.10;;;;;;;4.14;57.27;101694.02;234777;1196;139822;-68
2023/02/08 12:56:37;;;;;;;;;;;;;;;;;;;;;
2023/02/08 13:03:40;;;;;;;;;;;;;;;;;;;;;
2023/02/08 13:31:21;;;;;;;;;;;;;;;;;;;;;
2023/02/08 13:39:11;;;;;;;24.30;14.60;;;;;;;5.64;55.37;101630.52;234621;1202;139363;-66
2023/02/08 13:46:42;;;;;;;;;;;;;;;;;;;;;
2023/02/08 13:52:13;;;;;;;;;;;;;;;;;;;;;
2023/02/08 13:57:59;;;;;;;19.80;12.50;;;;;;;5.33;50.15;101633.50;234851;1199;138412;-66
2023/02/08 14:11:19;;;;;;;17.20;11.20;;;;;;;6.11;52.10;101630.34;234634;1200;138665;-66
2023/02/08 14:24:45;;;;;;;;;;;;;;;;;;;;;
2023/02/08 14:30:44;;;;;;;19.20;11.80;;;;;;;5.33;49.22;101634.73;234751;1199;138707;-68
2023/02/08 14:36:44;;;;;;;;;;;;;;;;;;;;;
2023/02/08 14:42:59;;;;;;;;;;;;;;;;;;;;;
2023/02/08 14:49:06;;;;;;;18.70;11.20;;;;;;;3.99;51.11;101637.71;234928;1196;139158;-66
2023/02/08 14:56:25;;;;;;;18.10;10.70;;;;;;;3.76;51.69;101637.72;234612;1206;138208;-67
2023/02/08 15:02:32;;;;;;;;;;;;;;;;;;;;;
2023/02/08 15:08:17;;;;;;;;;;;;;;;;;;;;;
2023/02/08 15:14:32;;;;;;;;;;;;;;;;;;;;;
2023/02/08 15:21:00;;;;;;;11.70;7.50;;;;;;;3.27;51.21;101639.22;235006;1196;138811;-67
2023/02/08 15:27:04;;;;;;;13.20;8.50;;;;;;;3.14;51.18;101628.91;235148;1196;139146;-69
2023/02/08 15:32:43;;;;;;;11.40;8.00;;;;;;;2.98;50.83;101624.37;235041;1196;138913;-68
2023/02/08 15:38:59;;;;;;;12.70;8.50;;;;;;;2.85;51.09;101625.98;234801;1196;139124;-68
2023/02/08 15:44:43;;;;;;;10.40;7.10;;;;;;;3.31;58.60;101625.86;235718;1192;139239;-66
2023/02/08 15:50:06;;;;;;;13.80;7.30;;;;;;;6.32;58.06;101616.38;235212;1193;138376;-68
2023/02/08 15:55:16;;;;;;;12.10;8.00;;;;;;;8.57;51.23;101609.30;235601;1192;138948;-67
2023/02/08 16:00:38;;;;;;;16.60;10.50;;;;;;;9.73;46.02;101599.84;235563;1193;140028;-66
2023/02/08 16:05:54;;;;;;;20.70;12.70;;;;;;;8.41;42.78;101604.17;235515;1192;138843;-66
2023/02/08 16:12:00;;;;;;;;;;;;;;;;;;;;;
2023/02/08 16:17:39;;;;;;;19.20;11.80;;;;;;;5.31;45.29;101622.05;235698;1192;138827;-67
2023/02/08 16:23:58;;;;;;;;;;;;;;;;;;;;;
2023/02/08 16:29:47;;;;;;;;;;;;;;;;;;;;;
2023/02/08 16:43:04;;;;;;;25.20;14.30;;;;;;;2.64;50.39;101643.25;235503;1193;138685;-67
2023/02/08 16:49:29;;;;;;;34.90;19.50;;;;;;;2.29;51.62;101640.88;235536;1192;138142;-66
2023/02/08 16:55:14;;;;;;;;;;;;;;;2.05;52.37;101638.80;235689;1192;138807;-66
2023/02/08 17:02:57;;;;;;;36.40;20.70;;;;;;;1.84;53.24;101636.02;231501;1211;635981;-64
2023/02/08 17:09:10;;;;;;;48.00;26.80;;;;;;;1.72;54.20;101641.77;234665;1198;139022;-66
2023/02/08 17:15:27;;;;;;;;;;;;;;;;;;;;;
2023/02/08 17:21:34;;;;;;;45.30;25.40;;;;;;;1.49;54.26;101637.90;234980;1196;138163;-66
2023/02/08 17:27:46;;;;;;;47.70;27.30;;;;;;;1.37;54.68;101639.09;235008;1196;139335;-67
2023/02/08 17:34:02;;;;;;;;;;;;;;;;;;;;;
2023/02/08 17:40:21;;;;;;;47.90;26.60;;;;;;;1.07;55.07;101637.50;235032;1196;138824;-67
2023/02/08 17:45:50;;;;;;;;;;;;;;;;;;;;;
2023/02/08 17:51:31;;;;;;;;;;;;;;;;;;;;;
2023/02/08 17:57:55;;;;;;;47.50;27.00;;;;;;;0.77;56.23;101640.25;235106;1194;138774;-66
2023/02/08 18:11:42;;;;;;;;;;;;;;;;;;;;;
2023/02/08 18:18:08;;;;;;;102.40;52.20;;;;;;;0.67;57.55;101641.09;235486;1195;138523;-64
2023/02/08 18:24:25;;;;;;;58.40;31.90;;;;;;;0.72;56.88;101641.89;235147;1196;138104;-65
2023/02/08 18:30:50;;;;;;;63.60;33.50;;;;;;;0.60;56.77;101641.48;234940;1195;138700;-69
2023/02/08 18:36:28;;;;;;;59.40;31.60;;;;;;;0.50;56.98;101638.98;235000;1196;139036;-69
2023/02/08 18:42:24;;;;;;;61.00;33.50;;;;;;;0.43;57.10;101642.34;235056;1196;139531;-66
2023/02/08 18:49:18;;;;;;;57.80;32.50;;;;;;;0.58;58.47;101643.88;234865;1195;139065;-67
2023/02/08 18:56:01;;;;;;;58.60;32.20;;;;;;;0.47;57.17;101652.55;235035;1194;138858;-68
2023/02/08 19:46:27;;;;;;;67.70;35.70;;;;;;;-0.22;57.43;101639.14;232329;1211;656980;-66
2023/02/08 19:52:41;;;;;;;;;;;;;;;;;;;;;
2023/02/08 19:59:08;;;;;;;71.30;37.40;;;;;;;-0.34;57.63;101626.81;235420;1192;139158;-68
2023/02/08 20:18:07;;;;;;;69.20;34.40;;;;;;;-0.61;57.62;101598.58;235459;1192;138925;-67
2023/02/08 20:24:14;;;;;;;;;;;;;;;;;;;;;
2023/02/08 20:30:21;;;;;;;73.40;37.20;;;;;;;-0.98;58.22;101607.41;235295;1194;142156;-70
2023/02/08 20:35:46;;;;;;;74.60;37.10;;;;;;;-0.95;58.57;101605.41;235559;1192;138885;-70
2023/02/08 21:01:58;;;;;;;116.30;51.00;;;;;;;-1.12;58.10;101589.81;235368;1193;139144;-68
2023/02/08 21:08:02;;;;;;;111.40;47.70;;;;;;;-1.21;58.13;101592.36;235377;1193;139144;-66
2023/02/08 21:22:02;;;;;;;;;;;;;;;;;;;;;
2023/02/08 21:28:38;;;;;;;102.30;46.00;;;;;;;-1.43;58.68;101588.43;235484;1193;138894;-68
2023/02/08 21:34:53;;;;;;;106.80;48.00;;;;;;;-1.52;58.74;101581.39;235652;1192;138810;-70
2023/02/08 22:02:07;;;;;;;;;;;;;;;;;;;;;
2023/02/08 22:14:32;;;;;;;111.70;48.90;;;;;;;-1.73;59.23;101548.42;235602;1192;138814;-71
2023/02/08 22:20:46;;;;;;;102.70;46.50;;;;;;;-1.83;59.32;101538.94;235661;1193;138791;-71
2023/02/08 22:27:01;;;;;;;99.60;48.00;;;;;;;-1.91;59.25;101539.40;235600;1193;138726;-69
2023/02/08 22:33:21;;;;;;;98.80;45.80;;;;;;;-1.91;59.86;101544.43;235600;1192;139486;-69
2023/02/08 22:39:47;;;;;;;95.80;45.40;;;;;;;-1.91;59.89;101540.77;235121;1197;140068;-69
2023/02/08 22:45:41;;;;;;;;;;;;;;;;;;;;;
2023/02/08 22:52:09;;;;;;;99.30;47.20;;;;;;;-2.01;59.61;101541.00;235494;1192;141015;-69
2023/02/08 23:03:03;;;;;;;108.60;50.90;;;;;;;-2.14;58.87;101537.66;232780;1209;636137;-67
2023/02/08 23:08:51;;;;;;;;;;;;;;;;;;;;;
2023/02/08 23:15:05;;;;;;;108.20;54.40;;;;;;;-2.39;58.47;101516.39;235406;1193;138952;-69
2023/02/08 23:43:06;;;;;;;111.20;55.70;;;;;;;-2.97;58.68;101517.88;234595;1196;138712;-65
2023/02/08 23:49:13;;;;;;;;;;;;;;;;;;;;;
2023/02/08 23:54:57;;;;;;;121.50;58.70;;;;;;;-3.24;58.82;101507.27;235486;1193;138844;-68
